Time;durP1;ratioP1;P1;durP2;ratioP2;P2;SDS_P1;SDS_P2;PMS_P1;PMS_P2;Temp;Humidity;BMP_temperature;BMP_pressure;BME280_temperature;BME280_humidity;BME280_pressure;Samples;Min_cycle;Max_cycle;Signal;HPM_P1;HPM_P2
2022/02/09 00:00:42;;;;;;;;;;;;;;;-2.63;80.86;100264.47;5108861;28;882;-59
2022/02/09 00:03:14;;;;;;;;;;;;;;;-2.72;81.39;100258.97;5093659;28;803;-58
2022/02/09 00:05:57;;;;;;;;;;;;;;;-2.70;81.09;100254.06;5075429;28;1219;-58
2022/02/09 00:08:24;;;;;;;;;;;;;;;-2.56;81.94;100266.75;5093705;28;839;-58
2022/02/09 00:10:58;;;;;;;;;;;;;;;-2.33;81.31;100270.34;5093436;28;1917;-58
2022/02/09 00:18:51;;;;;;;;;;;;;;;-1.47;77.78;100277.53;5093388;28;652;-58
2022/02/09 00:32:26;;;;;;;;;;;;;;;0.32;68.37;100294.13;5093003;28;1906;-58
2022/02/09 00:39:43;;;;;;;;;;;;;;;-0.03;69.54;100296.03;5093731;28;840;-58
2022/02/09 01:33:02;;;;;;;;;;;;;;;-2.43;78.43;100284.91;5092294;28;626;-58
2022/02/09 01:56:44;;;;;;;;;;;;;;;-3.36;82.47;100290.50;5009692;28;950;-58
2022/02/09 01:59:10;;;;;;;;;;;;;;;-3.45;82.62;100294.97;5009651;28;848;-58
2022/02/09 02:01:37;;;;;;;;;;;;;;;-3.53;83.08;100304.56;5010029;28;887;-58
2022/02/09 02:04:03;;;;;;;;;;;;;;;-3.17;83.08;100298.53;5009633;28;971;-58
2022/02/09 02:06:31;;;;;;;;;;;;;;;-3.09;82.26;100290.53;5009731;28;870;-58
2022/02/09 02:08:58;;;;;;;;;;;;;;;-3.21;82.73;100295.63;5009483;28;911;-57
2022/02/09 02:11:30;;;;;;;;;;;;;;;-3.29;82.62;100301.72;5009537;28;1953;-58
2022/02/09 02:16:50;;;;;;;;;;;;;;;-3.37;81.74;100310.50;5042819;28;934;-57
2022/02/09 02:19:32;;;;;;;;;;;;;;;-3.26;81.80;100297.59;5106469;28;913;-58
2022/02/09 02:25:04;;;;;;;;;;;;;;;-3.38;81.91;100304.28;5091408;28;676;-57
2022/02/09 02:27:49;;;;;;;;;;;;;;;-3.32;82.24;100303.13;5090789;28;1638;-57
2022/02/09 02:57:09;;;;;;;;;;;;;;;-3.38;79.59;100308.91;5094853;28;645;-58
2022/02/09 03:13:08;;;;;;;;;;;;;;;-2.85;78.57;100311.19;5095083;28;699;-57
2022/02/09 03:15:56;;;;;;;;;;;;;;;-2.63;77.34;100318.59;5094522;28;970;-57
2022/02/09 03:18:44;;;;;;;;;;;;;;;-2.67;77.00;100314.88;5094371;28;863;-57
2022/02/09 03:24:02;;;;;;;;;;;;;;;-2.70;76.36;100318.22;5068806;28;1390;-57
2022/02/09 03:49:33;;;;;;;;;;;;;;;-2.77;76.98;100324.03;5094295;28;629;-57
2022/02/09 03:54:29;;;;;;;;;;;;;;;-2.69;75.87;100331.44;5094164;28;688;-57
2022/02/09 03:59:24;;;;;;;;;;;;;;;-2.73;76.03;100316.91;5093810;28;699;-57
2022/02/09 04:01:51;;;;;;;;;;;;;;;-2.81;76.55;100306.00;5093527;28;926;-57
2022/02/09 04:04:17;;;;;;;;;;;;;;;-2.88;76.30;100312.59;5093764;28;788;-57
2022/02/09 04:06:48;;;;;;;;;;;;;;;-2.94;76.57;100313.00;5093660;28;822;-57
2022/02/09 04:09:17;;;;;;;;;;;;;;;-2.94;76.59;100313.78;5093736;28;832;-57
2022/02/09 04:17:09;;;;;;;;;;;;;;;-3.01;76.93;100313.38;5093852;28;957;-57
2022/02/09 04:19:47;;;;;;;;;;;;;;;-3.12;77.20;100320.88;5093412;28;902;-56
2022/02/09 04:36:15;;;;;;;;;;;;;;;-3.81;79.35;100336.88;5061225;28;1176;-57
2022/02/09 04:38:56;;;;;;;;;;;;;;;-4.12;80.37;100331.94;5092794;28;954;-57
2022/02/09 04:44:19;;;;;;;;;;;;;;;-4.29;81.27;100339.69;5092917;28;705;-57
2022/02/09 04:47:08;;;;;;;;;;;;;;;-4.47;81.97;100338.59;5092929;28;875;-57
2022/02/09 04:49:59;;;;;;;;;;;;;;;-4.61;82.43;100343.88;5092679;28;835;-56
2022/02/09 04:52:38;;;;;;;;;;;;;;;-4.56;83.24;100343.03;5092835;28;908;-56
2022/02/09 04:55:31;;;;;;;;;;;;;;;-4.60;82.96;100355.47;5092762;28;847;-56
2022/02/09 04:58:05;;;;;;;;;;;;;;;-4.62;83.33;100350.34;5092470;28;942;-56
2022/02/09 05:20:07;;;;;;;;;;;;;;;-4.87;85.61;100358.72;5092647;28;700;-56
2022/02/09 05:27:18;;;;;;;;;;;;;;;-4.84;85.39;100377.84;5092009;28;1371;-56
2022/02/09 05:29:45;;;;;;;;;;;;;;;-4.77;85.51;100375.59;5092021;28;1264;-57
2022/02/09 05:32:12;;;;;;;;;;;;;;;-4.76;85.22;100379.94;5092233;28;1897;-57
2022/02/09 05:34:38;;;;;;;;;;;;;;;-4.67;85.39;100371.19;5092002;28;881;-56
2022/02/09 05:37:04;;;;;;;;;;;;;;;-4.21;83.73;100382.25;5091926;28;863;-56
2022/02/09 05:39:30;;;;;;;;;;;;;;;-3.88;83.12;100381.53;5091843;28;858;-56
2022/02/09 05:41:57;;;;;;;;;;;;;;;-3.83;83.27;100381.50;5091721;28;894;-56
2022/02/09 05:44:24;;;;;;;;;;;;;;;-3.58;82.93;100380.31;5091957;28;955;-56
2022/02/09 05:51:58;;;;;;;;;;;;;;;-2.28;81.40;100405.63;5091651;28;1957;-56
2022/02/09 05:57:13;;;;;;;;;;;;;;;-1.60;77.99;100409.34;5091737;28;759;-56
2022/02/09 05:59:39;;;;;;;;;;;;;;;-1.39;77.32;100414.28;5091997;28;896;-56
2022/02/09 06:02:06;;;;;;;;;;;;;;;-0.93;78.47;100422.09;5092130;28;798;-56
2022/02/09 06:04:34;;;;;;;;;;;;;;;-0.18;77.45;100421.50;5091651;28;1041;-56
2022/02/09 06:07:00;;;;;;;;;;;;;;;0.49;75.96;100425.75;5092038;28;988;-56
2022/02/09 06:09:27;;;;;;;;;;;;;;;0.89;73.42;100422.88;5091468;28;897;-56
2022/02/09 06:12:09;;;;;;;;;;;;;;;1.11;73.01;100421.88;5092195;28;1882;-56
2022/02/09 06:19:53;;;;;;;;;;;;;;;2.52;71.67;100420.88;5096043;28;617;-57
2022/02/09 06:22:22;;;;;;;;;;;;;;;2.48;70.88;100420.75;5095478;28;907;-56
2022/02/09 06:24:49;;;;;;;;;;;;;;;2.53;72.40;100412.34;5095599;28;857;-56
2022/02/09 06:27:17;;;;;;;;;;;;;;;2.73;72.89;100418.97;5095445;28;1178;-56
2022/02/09 06:29:48;;;;;;;;;;;;;;;3.06;71.42;100431.81;5095576;28;886;-56
2022/02/09 06:32:15;;;;;;;;;;;;;;;3.14;69.38;100424.69;5095464;28;1906;-57
2022/02/09 06:34:44;;;;;;;;;;;;;;;3.19;67.92;100422.53;5095301;28;863;-56
2022/02/09 06:37:25;;;;;;;;;;;;;;;3.45;68.80;100421.44;5095304;28;966;-56
2022/02/09 06:39:58;;;;;;;;;;;;;;;4.10;66.89;100424.31;5095037;28;977;-57
2022/02/09 06:42:25;;;;;;;;;;;;;;;4.55;65.92;100417.06;5095055;28;970;-57
2022/02/09 06:44:55;;;;;;;;;;;;;;;4.80;63.72;100410.34;5095272;28;890;-56
2022/02/09 06:47:25;;;;;;;;;;;;;;;4.98;61.46;100404.56;5095117;28;926;-57
2022/02/09 06:50:05;;;;;;;;;;;;;;;4.91;58.67;100413.41;5110340;28;878;-57
2022/02/09 06:52:32;;;;;;;;;;;;;;;4.83;59.77;100403.38;5095074;28;946;-57
2022/02/09 06:55:20;;;;;;;;;;;;;;;4.95;57.08;100397.03;5095390;28;921;-57
2022/02/09 07:00:14;;;;;;;;;;;;;;;5.22;56.52;100409.91;5095158;28;636;-57
2022/02/09 07:02:41;;;;;;;;;;;;;;;5.29;57.79;100415.59;5095170;28;807;-57
2022/02/09 07:05:08;;;;;;;;;;;;;;;5.67;59.91;100408.69;5094878;28;934;-55
2022/02/09 07:07:35;;;;;;;;;;;;;;;5.81;54.72;100402.00;5094859;28;1022;-57
2022/02/09 07:10:02;;;;;;;;;;;;;;;5.67;54.63;100413.41;5094682;28;1961;-57
2022/02/09 07:12:28;;;;;;;;;;;;;;;5.84;55.10;100404.78;5094755;28;847;-57
2022/02/09 07:14:55;;;;;;;;;;;;;;;6.09;51.46;100412.84;5095168;28;1019;-57
2022/02/09 07:17:22;;;;;;;;;;;;;;;5.57;52.98;100417.47;5094834;28;863;-57
2022/02/09 07:20:05;;;;;;;;;;;;;;;4.72;55.81;100418.72;5094749;28;902;-57
2022/02/09 07:22:35;;;;;;;;;;;;;;;4.18;56.89;100426.16;5094526;28;898;-57
2022/02/09 07:25:16;;;;;;;;;;;;;;;3.87;57.37;100419.31;5093946;28;888;-57
2022/02/09 07:27:53;;;;;;;;;;;;;;;3.76;58.06;100423.66;5094245;28;1261;-57
2022/02/09 07:30:22;;;;;;;;;;;;;;;3.79;57.91;100431.16;5094356;28;1938;-58
2022/02/09 07:32:59;;;;;;;;;;;;;;;3.86;58.05;100434.13;5094155;28;933;-58
2022/02/09 07:35:25;;;;;;;;;;;;;;;3.89;57.82;100436.19;5094182;28;1023;-58
2022/02/09 07:37:52;;;;;;;;;;;;;;;4.01;58.04;100440.03;5094085;28;835;-58
2022/02/09 07:40:18;;;;;;;;;;;;;;;3.97;58.11;100430.91;5094086;28;938;-58
2022/02/09 07:42:49;;;;;;;;;;;;;;;3.79;57.38;100420.22;5094416;28;890;-58
2022/02/09 07:53:47;;;;;;;;;;;;;;;3.30;60.40;100427.56;5094143;28;680;-58
2022/02/09 07:56:15;;;;;;;;;;;;;;;3.27;60.06;100418.09;5093687;28;1383;-58
2022/02/09 07:58:41;;;;;;;;;;;;;;;3.73;59.82;100418.84;5093680;28;918;-58
2022/02/09 08:01:07;;;;;;;;;;;;;;;4.53;58.76;100419.34;5093898;28;957;-58
2022/02/09 08:03:36;;;;;;;;;;;;;;;5.55;56.77;100425.25;5093767;28;895;-58
2022/02/09 08:06:03;;;;;;;;;;;;;;;5.75;55.96;100425.34;5093632;28;915;-58
2022/02/09 08:08:32;;;;;;;;;;;;;;;5.48;54.55;100431.38;5093491;28;827;-58
2022/02/09 08:11:12;;;;;;;;;;;;;;;5.36;55.77;100431.44;5093255;28;1948;-58
2022/02/09 08:27:40;;;;;;;;;;;;;;;4.88;56.61;100417.59;5093455;28;1275;-58
2022/02/09 08:30:21;;;;;;;;;;;;;;;5.25;56.19;100419.41;5074881;28;1914;-58
2022/02/09 08:32:54;;;;;;;;;;;;;;;5.58;53.95;100419.06;5074911;28;1322;-58
2022/02/09 08:35:21;;;;;;;;;;;;;;;5.52;53.69;100432.22;5092929;28;900;-59
2022/02/09 08:38:18;;;;;;;;;;;;;;;5.72;53.87;100426.84;5073752;28;2197;-58
2022/02/09 08:40:45;;;;;;;;;;;;;;;5.59;53.90;100439.84;5087049;28;1074;-58
2022/02/09 08:43:24;;;;;;;;;;;;;;;5.40;53.52;100439.72;5092803;28;843;-59
2022/02/09 08:45:51;;;;;;;;;;;;;;;5.23;53.84;100438.13;5092987;28;881;-59
2022/02/09 08:48:20;;;;;;;;;;;;;;;5.32;53.89;100436.03;5092816;28;790;-59
2022/02/09 08:50:50;;;;;;;;;;;;;;;5.50;52.93;100440.03;5092546;28;1951;-57
2022/02/09 08:53:17;;;;;;;;;;;;;;;5.64;51.77;100434.09;5092807;28;935;-58
2022/02/09 08:55:44;;;;;;;;;;;;;;;5.69;52.06;100441.25;5092795;28;913;-58
2022/02/09 08:58:14;;;;;;;;;;;;;;;5.75;52.37;100441.81;5091205;28;1346;-56
2022/02/09 09:00:42;;;;;;;;;;;;;;;5.94;52.99;100436.41;5092400;28;910;-58
2022/02/09 09:03:15;;;;;;;;;;;;;;;6.34;51.67;100425.19;5092470;28;953;-58
2022/02/09 09:05:50;;;;;;;;;;;;;;;6.81;51.74;100434.44;5092276;28;930;-58
2022/02/09 10:14:08;;;;;;;;;;;;;;;6.93;50.05;100436.22;5091753;28;872;-58
2022/02/09 10:30:49;;;;;;;;;;;;;;;6.65;50.46;100447.41;5091587;28;630;-58
2022/02/09 10:34:04;;;;;;;;;;;;;;;6.24;52.74;100441.44;5091367;28;680;-58
2022/02/09 10:36:43;;;;;;;;;;;;;;;6.57;52.92;100442.94;5082200;28;1683;-58
2022/02/09 10:39:12;;;;;;;;;;;;;;;6.84;52.57;100428.19;5091284;28;846;-58
2022/02/09 10:41:52;;;;;;;;;;;;;;;6.67;52.37;100434.13;5091202;28;830;-58
2022/02/09 10:44:23;;;;;;;;;;;;;;;6.39;53.15;100426.06;5091260;28;814;-57
2022/02/09 10:46:54;;;;;;;;;;;;;;;6.23;53.77;100429.66;5091196;28;909;-57
2022/02/09 10:49:23;;;;;;;;;;;;;;;6.16;53.01;100437.72;5091173;28;1216;-58
2022/02/09 10:52:05;;;;;;;;;;;;;;;6.09;53.76;100445.78;5090961;28;1973;-57
2022/02/09 10:54:33;;;;;;;;;;;;;;;6.04;54.05;100440.56;5091365;28;838;-58
2022/02/09 10:57:00;;;;;;;;;;;;;;;6.10;54.16;100439.13;5073078;28;2599;-58
2022/02/09 10:59:28;;;;;;;;;;;;;;;6.25;53.71;100443.81;5091189;28;899;-58
2022/02/09 11:01:56;;;;;;;;;;;;;;;6.49;53.49;100440.03;5094122;28;902;-58
2022/02/09 11:04:22;;;;;;;;;;;;;;;6.78;52.06;100417.84;5094841;28;905;-58
2022/02/09 11:06:49;;;;;;;;;;;;;;;6.78;52.14;100428.84;5094721;28;886;-58
2022/02/09 11:09:17;;;;;;;;;;;;;;;6.74;51.38;100426.84;5094647;28;946;-58
2022/02/09 11:11:44;;;;;;;;;;;;;;;6.75;51.60;100424.88;5094677;28;1941;-58
2022/02/09 11:14:14;;;;;;;;;;;;;;;6.70;51.49;100431.47;5094584;28;898;-58
2022/02/09 11:16:43;;;;;;;;;;;;;;;6.73;51.17;100414.25;5094724;28;946;-57
2022/02/09 11:19:11;;;;;;;;;;;;;;;6.70;51.85;100430.63;5094545;28;914;-58
2022/02/09 11:21:39;;;;;;;;;;;;;;;6.75;50.78;100428.41;5094375;28;1026;-57
2022/02/09 11:24:16;;;;;;;;;;;;;;;6.70;51.52;100436.94;5095059;28;1098;-58
2022/02/09 11:26:55;;;;;;;;;;;;;;;6.72;51.67;100440.13;5093999;28;1336;-58
2022/02/09 11:34:51;;;;;;;;;;;;;;;6.79;49.97;100435.94;5094326;28;751;-58
2022/02/09 11:37:25;;;;;;;;;;;;;;;6.81;49.97;100436.38;5094309;28;1163;-58
2022/02/09 11:39:55;;;;;;;;;;;;;;;6.91;50.51;100446.78;5094282;28;929;-58
2022/02/09 11:42:46;;;;;;;;;;;;;;;6.94;49.34;100446.84;5093909;28;921;-58
2022/02/09 11:58:52;;;;;;;;;;;;;;;8.29;46.23;100452.31;5094179;28;641;-58
2022/02/09 12:09:42;;;;;;;;;;;;;;;8.17;45.26;100439.56;5093960;28;665;-58
2022/02/09 12:12:13;;;;;;;;;;;;;;;8.14;46.18;100442.25;5093456;28;1881;-59
2022/02/09 12:15:02;;;;;;;;;;;;;;;8.41;46.18;100429.31;5093398;28;938;-58
2022/02/09 12:20:22;;;;;;;;;;;;;;;8.88;44.74;100446.47;5093440;28;775;-58
2022/02/09 12:25:39;;;;;;;;;;;;;;;9.03;44.78;100430.88;5093330;28;696;-56
2022/02/09 12:28:06;;;;;;;;;;;;;;;9.09;44.31;100451.41;5092995;28;1245;-57
2022/02/09 12:30:33;;;;;;;;;;;;;;;9.18;44.35;100463.75;5092979;28;1975;-58
2022/02/09 12:32:59;;;;;;;;;;;;;;;9.32;43.92;100452.06;5075010;28;1183;-58
2022/02/09 12:35:27;;;;;;;;;;;;;;;9.64;42.92;100470.13;5093085;28;874;-58
2022/02/09 12:37:53;;;;;;;;;;;;;;;9.77;43.60;100444.63;5093285;28;815;-58
2022/02/09 12:40:22;;;;;;;;;;;;;;;9.76;43.42;100442.25;5092965;28;910;-58
2022/02/09 12:42:50;;;;;;;;;;;;;;;9.69;43.15;100442.19;5092973;28;845;-58
2022/02/09 12:45:20;;;;;;;;;;;;;;;9.70;43.49;100457.56;5092859;28;930;-58
2022/02/09 12:57:31;;;;;;;;;;;;;;;10.22;42.92;100474.97;5092828;28;713;-58
2022/02/09 12:59:58;;;;;;;;;;;;;;;10.25;42.68;100468.66;5092565;28;877;-58
2022/02/09 13:02:39;;;;;;;;;;;;;;;10.44;42.88;100469.63;5092660;28;921;-58
2022/02/09 13:05:06;;;;;;;;;;;;;;;10.67;42.85;100475.66;5092566;28;874;-59
2022/02/09 13:07:33;;;;;;;;;;;;;;;10.58;41.29;100447.56;5108246;28;945;-58
2022/02/09 13:10:00;;;;;;;;;;;;;;;10.20;41.46;100464.28;5092405;28;957;-58
2022/02/09 13:12:27;;;;;;;;;;;;;;;10.07;41.81;100479.59;5092206;28;1893;-58
2022/02/09 13:15:01;;;;;;;;;;;;;;;10.45;41.90;100471.19;5092093;28;965;-58
2022/02/09 13:17:55;;;;;;;;;;;;;;;10.40;41.25;100477.88;5092274;28;859;-58
2022/02/09 13:21:54;;;;;;;;;;;;;;;10.43;41.48;100488.16;5092333;28;926;-59
2022/02/09 13:52:17;;;;;;;;;;;;;;;10.43;42.34;100488.16;5105258;28;1885;-59
2022/02/09 14:06:29;;;;;;;;;;;;;;;10.26;42.31;100500.63;5091661;28;779;-59
2022/02/09 14:13:33;;;;;;;;;;;;;;;10.17;44.02;100506.47;5091510;28;773;-59
2022/02/09 14:19:09;;;;;;;;;;;;;;;10.21;43.96;100512.81;5091880;28;712;-59
2022/02/09 14:34:07;;;;;;;;;;;;;;;10.64;43.78;100526.19;5091358;28;1902;-59
2022/02/09 14:52:03;;;;;;;;;;;;;;;9.16;45.89;100542.53;5095296;28;1917;-58
2022/02/09 14:54:56;;;;;;;;;;;;;;;9.04;46.40;100535.28;5095205;28;873;-59
2022/02/09 14:57:22;;;;;;;;;;;;;;;8.72;47.09;100543.09;5094196;28;1618;-59
2022/02/09 15:00:02;;;;;;;;;;;;;;;8.56;47.86;100549.56;5094889;28;937;-58
2022/02/09 15:08:27;;;;;;;;;;;;;;;8.41;47.91;100558.78;5095131;28;621;-59
2022/02/09 15:10:37;;;;;;;;;;;;;;;8.06;47.52;100559.75;5083745;28;1939;-58
2022/02/09 15:13:21;;;;;;;;;;;;;;;7.83;48.92;100556.19;5094934;28;958;-59
2022/02/09 15:15:59;;;;;;;;;;;;;;;7.80;48.38;100557.72;5095198;28;909;-59
2022/02/09 15:21:17;;;;;;;;;;;;;;;7.53;49.66;100565.88;5094626;28;719;-58
2022/02/09 15:23:44;;;;;;;;;;;;;;;7.30;49.93;100573.25;5094744;28;890;-59
2022/02/09 15:26:11;;;;;;;;;;;;;;;7.12;50.75;100562.66;5094232;28;909;-59
2022/02/09 15:28:38;;;;;;;;;;;;;;;7.00;51.21;100565.56;5094284;28;1417;-59
2022/02/09 15:31:11;;;;;;;;;;;;;;;6.84;50.89;100573.03;5094191;28;1921;-59
2022/02/09 15:33:48;;;;;;;;;;;;;;;6.78;51.41;100568.97;5094401;28;922;-58
2022/02/09 15:36:18;;;;;;;;;;;;;;;6.58;51.50;100570.88;5094312;28;1006;-59
2022/02/09 15:38:47;;;;;;;;;;;;;;;6.33;53.51;100579.31;5094151;28;866;-58
2022/02/09 15:44:03;;;;;;;;;;;;;;;5.69;55.65;100592.13;5094272;28;812;-58
2022/02/09 15:58:12;;;;;;;;;;;;;;;3.62;62.39;100601.66;5093733;28;638;-58
2022/02/09 16:06:26;;;;;;;;;;;;;;;3.08;65.13;100617.22;5093649;28;633;-58
2022/02/09 16:22:52;;;;;;;;;;;;;;;2.94;66.52;100640.09;5011630;28;1343;-58
2022/02/09 16:33:18;;;;;;;;;;;;;;;2.66;67.28;100634.31;5011152;28;693;-58
2022/02/09 16:46:24;;;;;;;;;;;;;;;2.63;68.18;100652.16;5011012;28;709;-58
2022/02/09 16:51:22;;;;;;;;;;;;;;;2.50;69.49;100655.09;5010631;28;1886;-58
2022/02/09 16:54:28;;;;;;;;;;;;;;;2.47;69.31;100653.81;5011031;28;943;-58
2022/02/09 17:21:23;;;;;;;;;;;;;;;2.11;73.94;100673.34;5092608;28;1343;-58
2022/02/09 17:23:50;;;;;;;;;;;;;;;2.08;74.22;100671.28;5092150;28;804;-58
2022/02/09 17:26:17;;;;;;;;;;;;;;;2.04;73.75;100677.34;5092279;28;878;-58
2022/02/09 17:28:44;;;;;;;;;;;;;;;2.08;74.63;100674.00;5092032;28;1278;-58
2022/02/09 17:58:08;;;;;;;;;;;;;;;1.89;76.06;100707.84;5053451;28;1431;-58
2022/02/09 18:00:34;;;;;;;;;;;;;;;1.88;76.00;100708.16;5091746;28;866;-58
2022/02/09 18:03:02;;;;;;;;;;;;;;;1.80;76.61;100713.31;5091440;28;1001;-58
2022/02/09 18:08:31;;;;;;;;;;;;;;;1.59;76.22;100710.41;5091874;28;1224;-58
2022/02/09 18:11:13;;;;;;;;;;;;;;;1.50;77.64;100708.81;5091262;28;1895;-58
2022/02/09 18:14:18;;;;;;;;;;;;;;;1.60;78.33;100713.94;5091559;28;902;-58
2022/02/09 18:25:18;;;;;;;;;;;;;;;1.61;77.45;100735.44;5091273;28;629;-58
2022/02/09 18:33:14;;;;;;;;;;;;;;;1.50;78.63;100739.59;5091501;28;692;-58
2022/02/09 18:38:58;;;;;;;;;;;;;;;1.52;78.05;100737.34;5091360;28;633;-58
2022/02/09 18:46:26;;;;;;;;;;;;;;;1.37;78.85;100744.06;5091204;28;727;-58
2022/02/09 18:56:51;;;;;;;;;;;;;;;1.53;78.19;100754.50;5091305;28;810;-58
2022/02/09 19:00:07;;;;;;;;;;;;;;;1.53;78.59;100744.38;5091125;28;645;-58
2022/02/09 19:05:15;;;;;;;;;;;;;;;1.37;79.29;100754.94;5091418;28;761;-58
2022/02/09 19:32:21;;;;;;;;;;;;;;;1.10;79.97;100775.03;5074227;28;1965;-58
2022/02/09 19:44:06;;;;;;;;;;;;;;;1.16;80.79;100781.16;5074190;28;641;-58
2022/02/09 19:46:06;;;;;;;;;;;;;;;1.25;80.34;100792.88;5073825;28;785;-58
2022/02/09 19:48:40;;;;;;;;;;;;;;;1.35;81.03;100795.31;5074008;28;957;-58
2022/02/09 19:51:15;;;;;;;;;;;;;;;1.43;80.15;100783.66;5055967;28;1890;-58
2022/02/09 19:56:17;;;;;;;;;;;;;;;1.13;81.40;100779.88;5073884;28;871;-58
2022/02/09 19:59:14;;;;;;;;;;;;;;;1.20;81.38;100791.09;5073719;28;929;-58
2022/02/09 20:01:35;;;;;;;;;;;;;;;1.45;81.06;100807.03;5072828;28;1476;-57
2022/02/09 20:04:07;;;;;;;;;;;;;;;1.46;80.18;100804.00;5073638;28;850;-58
2022/02/09 20:06:34;;;;;;;;;;;;;;;1.30;80.00;100805.56;5073492;28;902;-58
2022/02/09 20:09:00;;;;;;;;;;;;;;;1.56;80.33;100809.16;5055529;28;1478;-58
2022/02/09 20:11:26;;;;;;;;;;;;;;;1.78;79.71;100804.72;5073375;28;1909;-58
2022/02/09 20:13:53;;;;;;;;;;;;;;;1.75;79.16;100817.06;5073785;28;858;-58
2022/02/09 20:16:20;;;;;;;;;;;;;;;1.63;79.63;100814.16;5073638;28;929;-58
2022/02/09 20:18:47;;;;;;;;;;;;;;;1.51;79.88;100817.47;5073376;28;814;-58
2022/02/09 20:21:13;;;;;;;;;;;;;;;1.63;80.09;100820.41;5073136;28;871;-58
2022/02/09 20:23:40;;;;;;;;;;;;;;;1.74;79.92;100815.44;5073106;28;859;-58
2022/02/09 20:26:09;;;;;;;;;;;;;;;1.76;79.39;100818.66;5073115;28;843;-58
2022/02/09 20:28:38;;;;;;;;;;;;;;;1.73;79.16;100813.84;5086618;28;1362;-58
2022/02/09 20:31:10;;;;;;;;;;;;;;;1.72;78.87;100809.50;5074830;28;1918;-58
2022/02/09 20:33:43;;;;;;;;;;;;;;;1.71;79.65;100813.38;5092388;28;839;-58
2022/02/09 20:36:12;;;;;;;;;;;;;;;1.85;79.23;100818.66;5093151;28;874;-58
2022/02/09 20:38:40;;;;;;;;;;;;;;;1.76;79.23;100812.41;5093152;28;935;-58
2022/02/09 20:41:09;;;;;;;;;;;;;;;1.63;79.78;100816.88;5092981;28;887;-58
2022/02/09 20:43:58;;;;;;;;;;;;;;;1.63;79.37;100817.66;5092802;28;910;-58
2022/02/09 20:46:27;;;;;;;;;;;;;;;1.65;79.63;100822.03;5092962;28;856;-58
2022/02/09 20:48:53;;;;;;;;;;;;;;;1.63;79.67;100820.41;5092894;28;827;-58
2022/02/09 20:51:20;;;;;;;;;;;;;;;1.63;79.12;100827.78;5093003;28;1957;-58
2022/02/09 20:53:46;;;;;;;;;;;;;;;1.65;79.03;100824.75;5092829;28;885;-58
2022/02/09 20:56:13;;;;;;;;;;;;;;;1.62;79.80;100820.69;5092744;28;827;-58
2022/02/09 20:58:43;;;;;;;;;;;;;;;1.71;79.80;100824.28;5092751;28;890;-58
2022/02/09 21:01:14;;;;;;;;;;;;;;;1.81;79.36;100837.59;5092605;28;901;-58
2022/02/09 21:03:46;;;;;;;;;;;;;;;1.59;79.42;100832.25;5092424;28;918;-58
2022/02/09 21:08:58;;;;;;;;;;;;;;;1.40;80.27;100838.75;5092571;28;883;-58
2022/02/09 21:17:04;;;;;;;;;;;;;;;1.65;80.54;100841.88;5092862;28;1114;-58
2022/02/09 21:28:42;;;;;;;;;;;;;;;1.79;79.53;100836.28;5111961;27;1229;-58
2022/02/09 21:49:08;;;;;;;;;;;;;;;2.21;78.44;100829.28;5112610;28;625;-58
2022/02/09 21:54:50;;;;;;;;;;;;;;;2.50;76.50;100827.84;5112191;28;715;-58
2022/02/09 21:57:27;;;;;;;;;;;;;;;2.38;76.90;100830.41;5112394;28;905;-58
2022/02/09 22:00:19;;;;;;;;;;;;;;;2.43;76.35;100830.22;5112148;28;908;-58
2022/02/09 22:16:50;;;;;;;;;;;;;;;0.88;77.47;100851.34;5112247;28;1018;-58
2022/02/09 22:19:43;;;;;;;;;;;;;;;0.57;78.36;100861.06;5111798;28;901;-58
2022/02/09 22:25:23;;;;;;;;;;;;;;;0.46;79.95;100846.09;5111907;28;739;-58
2022/02/09 22:27:49;;;;;;;;;;;;;;;0.63;80.11;100856.28;5111693;28;1738;-58
2022/02/09 22:55:17;;;;;;;;;;;;;;;1.29;79.68;100845.59;5111616;28;779;-57
2022/02/09 22:58:06;;;;;;;;;;;;;;;1.35;79.98;100843.56;5114601;28;820;-58
2022/02/09 23:00:51;;;;;;;;;;;;;;;1.58;79.45;100836.09;5114806;28;1720;-58
2022/02/09 23:12:16;;;;;;;;;;;;;;;1.33;79.61;100851.25;5052380;28;1947;-58
2022/02/09 23:25:09;;;;;;;;;;;;;;;1.17;79.85;100850.84;5052265;28;743;-58
